sensor_id;sensor_type;location;lat;lon;timestamp;P1;durP1;ratioP1;P2;durP2;ratioP2
25213;SDS011;13160;51.834;4.706;2024-03-02T05:40:12;1.88;;;0.73;;
25213;SDS011;13160;51.834;4.706;2024-03-02T05:43:01;3.67;;;0.90;;
25213;SDS011;13160;51.834;4.706;2024-03-02T05:55:49;2.72;;;0.90;;
25213;SDS011;13160;51.834;4.706;2024-03-02T05:58:49;2.47;;;0.70;;
25213;SDS011;13160;51.834;4.706;2024-03-02T06:02:04;3.10;;;0.70;;
25213;SDS011;13160;51.834;4.706;2024-03-02T06:05:05;3.95;;;0.77;;
25213;SDS011;13160;51.834;4.706;2024-03-02T06:08:29;2.85;;;0.75;;
25213;SDS011;13160;51.834;4.706;2024-03-02T06:12:00;5.00;;;1.20;;
25213;SDS011;13160;51.834;4.706;2024-03-02T06:14:57;1.30;;;0.68;;
25213;SDS011;13160;51.834;4.706;2024-03-02T06:18:29;1.90;;;0.90;;
25213;SDS011;13160;51.834;4.706;2024-03-02T06:21:52;5.45;;;1.00;;
25213;SDS011;13160;51.834;4.706;2024-03-02T06:24:32;2.00;;;0.80;;
25213;SDS011;13160;51.834;4.706;2024-03-02T06:27:50;2.63;;;0.98;;
25213;SDS011;13160;51.834;4.706;2024-03-02T06:30:58;2.75;;;1.10;;
25213;SDS011;13160;51.834;4.706;2024-03-02T06:34:19;3.40;;;0.93;;
25213;SDS011;13160;51.834;4.706;2024-03-02T06:37:41;4.20;;;0.90;;
25213;SDS011;13160;51.834;4.706;2024-03-02T06:50:10;6.10;;;1.02;;
25213;SDS011;13160;51.834;4.706;2024-03-02T07:07:29;5.13;;;1.13;;
25213;SDS011;13160;51.834;4.706;2024-03-02T07:22:13;2.25;;;0.90;;
25213;SDS011;13160;51.834;4.706;2024-03-02T07:24:44;5.10;;;0.90;;
25213;SDS011;13160;51.834;4.706;2024-03-02T07:27:13;3.72;;;1.30;;
25213;SDS011;13160;51.834;4.706;2024-03-02T07:29:44;3.30;;;1.00;;
25213;SDS011;13160;51.834;4.706;2024-03-02T07:32:29;4.90;;;1.13;;
25213;SDS011;13160;51.834;4.706;2024-03-02T07:35:43;5.22;;;1.10;;
25213;SDS011;13160;51.834;4.706;2024-03-02T07:39:16;4.82;;;1.00;;
25213;SDS011;13160;51.834;4.706;2024-03-02T07:42:00;5.85;;;1.30;;
25213;SDS011;13160;51.834;4.706;2024-03-02T07:44:45;4.80;;;0.90;;
25213;SDS011;13160;51.834;4.706;2024-03-02T07:47:47;3.38;;;1.05;;
25213;SDS011;13160;51.834;4.706;2024-03-02T07:50:22;6.43;;;0.95;;
25213;SDS011;13160;51.834;4.706;2024-03-02T07:52:58;4.60;;;1.00;;
25213;SDS011;13160;51.834;4.706;2024-03-02T08:46:16;7.05;;;1.33;;
25213;SDS011;13160;51.834;4.706;2024-03-02T08:49:13;4.28;;;1.13;;
25213;SDS011;13160;51.834;4.706;2024-03-02T09:17:36;4.72;;;1.20;;
25213;SDS011;13160;51.834;4.706;2024-03-02T09:20:15;8.40;;;1.27;;
25213;SDS011;13160;51.834;4.706;2024-03-02T09:22:50;5.22;;;1.25;;
25213;SDS011;13160;51.834;4.706;2024-03-02T11:25:27;4.15;;;1.23;;
25213;SDS011;13160;51.834;4.706;2024-03-02T11:28:01;3.90;;;1.30;;
25213;SDS011;13160;51.834;4.706;2024-03-02T11:33:43;4.80;;;1.00;;
25213;SDS011;13160;51.834;4.706;2024-03-02T11:36:13;5.72;;;1.40;;
25213;SDS011;13160;51.834;4.706;2024-03-02T11:38:45;5.03;;;1.10;;
25213;SDS011;13160;51.834;4.706;2024-03-02T11:44:25;5.90;;;1.30;;
25213;SDS011;13160;51.834;4.706;2024-03-02T12:15:03;6.38;;;1.13;;
25213;SDS011;13160;51.834;4.706;2024-03-02T12:17:37;7.63;;;1.60;;
25213;SDS011;13160;51.834;4.706;2024-03-02T12:20:27;9.45;;;1.30;;
25213;SDS011;13160;51.834;4.706;2024-03-02T12:23:00;8.02;;;1.42;;
25213;SDS011;13160;51.834;4.706;2024-03-02T12:25:33;8.30;;;1.52;;
25213;SDS011;13160;51.834;4.706;2024-03-02T12:29:05;6.68;;;1.33;;
25213;SDS011;13160;51.834;4.706;2024-03-02T12:32:24;10.27;;;1.25;;
25213;SDS011;13160;51.834;4.706;2024-03-02T12:34:55;9.55;;;1.33;;
25213;SDS011;13160;51.834;4.706;2024-03-02T12:41:20;5.60;;;1.13;;
25213;SDS011;13160;51.834;4.706;2024-03-02T12:47:48;5.35;;;1.00;;
25213;SDS011;13160;51.834;4.706;2024-03-02T12:51:26;6.03;;;1.10;;
25213;SDS011;13160;51.834;4.706;2024-03-02T12:54:54;5.03;;;1.20;;
25213;SDS011;13160;51.834;4.706;2024-03-02T12:58:41;5.00;;;1.02;;
25213;SDS011;13160;51.834;4.706;2024-03-02T13:10:01;5.15;;;0.88;;
25213;SDS011;13160;51.834;4.706;2024-03-02T13:13:07;5.55;;;1.02;;
25213;SDS011;13160;51.834;4.706;2024-03-02T13:16:50;6.03;;;1.20;;
25213;SDS011;13160;51.834;4.706;2024-03-02T13:20:21;6.57;;;1.15;;
25213;SDS011;13160;51.834;4.706;2024-03-02T13:27:24;6.45;;;1.30;;
25213;SDS011;13160;51.834;4.706;2024-03-02T13:30:15;5.25;;;0.90;;
25213;SDS011;13160;51.834;4.706;2024-03-02T13:33:30;5.43;;;0.90;;
25213;SDS011;13160;51.834;4.706;2024-03-02T13:44:24;6.03;;;1.40;;
25213;SDS011;13160;51.834;4.706;2024-03-02T13:53:14;6.40;;;1.23;;
25213;SDS011;13160;51.834;4.706;2024-03-02T14:01:03;4.63;;;1.10;;
25213;SDS011;13160;51.834;4.706;2024-03-02T14:03:37;5.22;;;1.30;;
25213;SDS011;13160;51.834;4.706;2024-03-02T15:21:25;5.93;;;1.05;;
25213;SDS011;13160;51.834;4.706;2024-03-02T15:23:54;7.60;;;1.20;;
25213;SDS011;13160;51.834;4.706;2024-03-02T15:26:24;4.47;;;1.00;;
25213;SDS011;13160;51.834;4.706;2024-03-02T15:28:55;8.48;;;1.15;;
25213;SDS011;13160;51.834;4.706;2024-03-02T15:31:35;3.78;;;1.10;;
25213;SDS011;13160;51.834;4.706;2024-03-02T15:34:08;4.95;;;1.05;;
25213;SDS011;13160;51.834;4.706;2024-03-02T15:36:43;8.95;;;1.38;;
25213;SDS011;13160;51.834;4.706;2024-03-02T15:42:26;5.90;;;1.58;;
25213;SDS011;13160;51.834;4.706;2024-03-02T15:44:55;6.57;;;1.25;;
25213;SDS011;13160;51.834;4.706;2024-03-02T15:47:43;2.53;;;0.85;;
25213;SDS011;13160;51.834;4.706;2024-03-02T15:50:25;6.30;;;1.60;;
25213;SDS011;13160;51.834;4.706;2024-03-02T15:53:29;4.88;;;1.25;;
25213;SDS011;13160;51.834;4.706;2024-03-02T16:15:07;5.70;;;1.20;;
25213;SDS011;13160;51.834;4.706;2024-03-02T16:20:56;6.30;;;1.45;;
25213;SDS011;13160;51.834;4.706;2024-03-02T16:27:30;8.70;;;1.70;;
25213;SDS011;13160;51.834;4.706;2024-03-02T16:30:17;6.70;;;1.60;;
25213;SDS011;13160;51.834;4.706;2024-03-02T16:32:51;5.38;;;1.30;;
25213;SDS011;13160;51.834;4.706;2024-03-02T16:35:21;3.65;;;1.15;;
25213;SDS011;13160;51.834;4.706;2024-03-02T16:37:53;5.38;;;1.50;;
25213;SDS011;13160;51.834;4.706;2024-03-02T16:40:26;4.60;;;1.48;;
25213;SDS011;13160;51.834;4.706;2024-03-02T16:42:59;6.38;;;1.40;;
25213;SDS011;13160;51.834;4.706;2024-03-02T16:45:33;6.90;;;1.63;;
25213;SDS011;13160;51.834;4.706;2024-03-02T16:48:10;5.05;;;1.40;;
25213;SDS011;13160;51.834;4.706;2024-03-02T16:50:41;5.78;;;1.52;;
25213;SDS011;13160;51.834;4.706;2024-03-02T16:53:12;9.27;;;1.58;;
25213;SDS011;13160;51.834;4.706;2024-03-02T16:55:45;4.32;;;1.40;;
25213;SDS011;13160;51.834;4.706;2024-03-02T16:58:20;4.50;;;1.30;;
25213;SDS011;13160;51.834;4.706;2024-03-02T17:00:55;5.60;;;1.50;;
25213;SDS011;13160;51.834;4.706;2024-03-02T17:03:25;5.78;;;1.40;;
25213;SDS011;13160;51.834;4.706;2024-03-02T17:05:56;5.43;;;1.60;;
25213;SDS011;13160;51.834;4.706;2024-03-02T17:08:29;5.57;;;1.60;;
25213;SDS011;13160;51.834;4.706;2024-03-02T17:11:02;4.00;;;1.30;;
25213;SDS011;13160;51.834;4.706;2024-03-02T17:13:32;4.05;;;1.00;;
25213;SDS011;13160;51.834;4.706;2024-03-02T17:16:02;3.75;;;1.30;;
25213;SDS011;13160;51.834;4.706;2024-03-02T17:18:31;3.63;;;1.50;;
25213;SDS011;13160;51.834;4.706;2024-03-02T17:21:01;4.82;;;1.10;;
25213;SDS011;13160;51.834;4.706;2024-03-02T17:23:31;2.97;;;1.30;;
25213;SDS011;13160;51.834;4.706;2024-03-02T17:26:00;3.92;;;1.20;;
25213;SDS011;13160;51.834;4.706;2024-03-02T17:28:29;3.40;;;1.20;;
25213;SDS011;13160;51.834;4.706;2024-03-02T17:31:00;3.03;;;1.33;;
25213;SDS011;13160;51.834;4.706;2024-03-02T17:33:30;3.10;;;1.23;;
25213;SDS011;13160;51.834;4.706;2024-03-02T17:36:00;4.68;;;1.20;;
25213;SDS011;13160;51.834;4.706;2024-03-02T17:38:30;4.57;;;1.52;;
25213;SDS011;13160;51.834;4.706;2024-03-02T17:40:59;4.65;;;1.50;;
25213;SDS011;13160;51.834;4.706;2024-03-02T17:43:42;5.95;;;1.63;;
25213;SDS011;13160;51.834;4.706;2024-03-02T17:46:45;8.27;;;1.98;;
25213;SDS011;13160;51.834;4.706;2024-03-02T17:49:42;4.63;;;1.30;;
25213;SDS011;13160;51.834;4.706;2024-03-02T17:53:04;5.05;;;1.45;;
25213;SDS011;13160;51.834;4.706;2024-03-02T17:56:09;2.95;;;1.25;;
25213;SDS011;13160;51.834;4.706;2024-03-02T18:02:47;5.43;;;1.65;;
25213;SDS011;13160;51.834;4.706;2024-03-02T18:12:54;4.75;;;1.50;;
25213;SDS011;13160;51.834;4.706;2024-03-02T18:15:41;6.35;;;1.73;;
25213;SDS011;13160;51.834;4.706;2024-03-02T18:38:50;4.97;;;2.67;;
25213;SDS011;13160;51.834;4.706;2024-03-02T18:51:14;2.67;;;1.60;;
25213;SDS011;13160;51.834;4.706;2024-03-02T18:58:18;4.75;;;1.80;;
25213;SDS011;13160;51.834;4.706;2024-03-02T19:01:02;4.60;;;2.20;;
25213;SDS011;13160;51.834;4.706;2024-03-02T19:04:11;4.35;;;1.65;;
25213;SDS011;13160;51.834;4.706;2024-03-02T19:07:00;4.43;;;1.95;;
25213;SDS011;13160;51.834;4.706;2024-03-02T19:09:33;7.95;;;2.03;;
25213;SDS011;13160;51.834;4.706;2024-03-02T19:12:32;5.50;;;2.20;;
25213;SDS011;13160;51.834;4.706;2024-03-02T19:15:59;6.82;;;1.90;;
25213;SDS011;13160;51.834;4.706;2024-03-02T19:18:58;5.38;;;1.80;;
25213;SDS011;13160;51.834;4.706;2024-03-02T19:22:06;3.38;;;1.63;;
25213;SDS011;13160;51.834;4.706;2024-03-02T19:25:18;5.05;;;2.10;;
25213;SDS011;13160;51.834;4.706;2024-03-02T19:28:56;4.97;;;1.75;;
25213;SDS011;13160;51.834;4.706;2024-03-02T19:32:03;4.38;;;1.85;;
25213;SDS011;13160;51.834;4.706;2024-03-02T19:35:41;3.97;;;1.70;;
25213;SDS011;13160;51.834;4.706;2024-03-02T19:38:20;4.97;;;2.03;;
25213;SDS011;13160;51.834;4.706;2024-03-02T19:40:56;7.07;;;2.10;;
25213;SDS011;13160;51.834;4.706;2024-03-02T19:43:43;5.60;;;2.25;;
25213;SDS011;13160;51.834;4.706;2024-03-02T19:46:12;4.82;;;2.40;;
25213;SDS011;13160;51.834;4.706;2024-03-02T19:48:42;5.07;;;2.47;;
25213;SDS011;13160;51.834;4.706;2024-03-02T19:51:12;3.63;;;2.00;;
25213;SDS011;13160;51.834;4.706;2024-03-02T19:53:43;4.22;;;2.20;;
25213;SDS011;13160;51.834;4.706;2024-03-02T19:56:20;5.50;;;2.60;;
25213;SDS011;13160;51.834;4.706;2024-03-02T19:58:53;5.50;;;2.33;;
25213;SDS011;13160;51.834;4.706;2024-03-02T20:01:25;6.10;;;2.38;;
25213;SDS011;13160;51.834;4.706;2024-03-02T20:03:57;4.47;;;2.30;;
25213;SDS011;13160;51.834;4.706;2024-03-02T20:06:31;6.05;;;2.30;;
25213;SDS011;13160;51.834;4.706;2024-03-02T20:09:04;6.60;;;2.42;;
25213;SDS011;13160;51.834;4.706;2024-03-02T20:11:34;5.05;;;2.10;;
25213;SDS011;13160;51.834;4.706;2024-03-02T20:14:05;5.32;;;2.20;;
25213;SDS011;13160;51.834;4.706;2024-03-02T20:16:42;4.72;;;2.38;;
25213;SDS011;13160;51.834;4.706;2024-03-02T20:19:12;5.82;;;2.30;;
25213;SDS011;13160;51.834;4.706;2024-03-02T20:21:45;4.95;;;2.45;;
25213;SDS011;13160;51.834;4.706;2024-03-02T20:24:16;6.93;;;2.10;;
25213;SDS011;13160;51.834;4.706;2024-03-02T20:26:44;3.70;;;2.15;;
25213;SDS011;13160;51.834;4.706;2024-03-02T20:29:13;6.45;;;2.80;;
25213;SDS011;13160;51.834;4.706;2024-03-02T20:31:43;4.22;;;2.17;;
25213;SDS011;13160;51.834;4.706;2024-03-02T20:34:12;8.98;;;2.42;;
25213;SDS011;13160;51.834;4.706;2024-03-02T20:36:43;4.95;;;2.30;;
25213;SDS011;13160;51.834;4.706;2024-03-02T20:39:12;4.50;;;2.50;;
25213;SDS011;13160;51.834;4.706;2024-03-02T20:41:42;7.18;;;2.70;;
25213;SDS011;13160;51.834;4.706;2024-03-02T20:44:16;9.93;;;2.28;;
25213;SDS011;13160;51.834;4.706;2024-03-02T20:46:45;6.97;;;2.50;;
25213;SDS011;13160;51.834;4.706;2024-03-02T20:49:15;4.40;;;2.22;;
25213;SDS011;13160;51.834;4.706;2024-03-02T20:51:43;6.13;;;2.20;;
25213;SDS011;13160;51.834;4.706;2024-03-02T20:54:13;4.80;;;2.45;;
25213;SDS011;13160;51.834;4.706;2024-03-02T20:56:44;4.47;;;2.42;;
25213;SDS011;13160;51.834;4.706;2024-03-02T20:59:13;4.07;;;2.38;;
25213;SDS011;13160;51.834;4.706;2024-03-02T21:01:42;4.53;;;2.40;;
25213;SDS011;13160;51.834;4.706;2024-03-02T21:04:14;3.67;;;2.10;;
25213;SDS011;13160;51.834;4.706;2024-03-02T21:06:43;5.13;;;2.33;;
25213;SDS011;13160;51.834;4.706;2024-03-02T21:09:12;4.25;;;2.30;;
25213;SDS011;13160;51.834;4.706;2024-03-02T21:11:40;5.72;;;2.60;;
25213;SDS011;13160;51.834;4.706;2024-03-02T21:14:15;5.43;;;2.25;;
25213;SDS011;13160;51.834;4.706;2024-03-02T21:16:43;4.10;;;2.20;;
25213;SDS011;13160;51.834;4.706;2024-03-02T21:19:12;3.17;;;1.90;;
25213;SDS011;13160;51.834;4.706;2024-03-02T21:21:42;4.55;;;2.30;;
25213;SDS011;13160;51.834;4.706;2024-03-02T21:24:11;5.15;;;2.00;;
25213;SDS011;13160;51.834;4.706;2024-03-02T21:26:40;5.22;;;2.30;;
25213;SDS011;13160;51.834;4.706;2024-03-02T21:29:15;4.45;;;2.25;;
25213;SDS011;13160;51.834;4.706;2024-03-02T21:31:49;4.68;;;2.28;;
25213;SDS011;13160;51.834;4.706;2024-03-02T21:34:22;4.53;;;2.20;;
25213;SDS011;13160;51.834;4.706;2024-03-02T21:36:51;6.40;;;2.25;;
25213;SDS011;13160;51.834;4.706;2024-03-02T21:39:20;6.40;;;2.53;;
25213;SDS011;13160;51.834;4.706;2024-03-02T21:46:04;4.38;;;2.40;;
25213;SDS011;13160;51.834;4.706;2024-03-02T21:48:34;5.95;;;2.58;;
25213;SDS011;13160;51.834;4.706;2024-03-02T21:51:04;5.93;;;2.40;;
25213;SDS011;13160;51.834;4.706;2024-03-02T21:53:35;5.75;;;2.10;;
25213;SDS011;13160;51.834;4.706;2024-03-02T21:56:06;5.53;;;2.45;;
25213;SDS011;13160;51.834;4.706;2024-03-02T21:58:57;7.65;;;2.30;;
25213;SDS011;13160;51.834;4.706;2024-03-02T22:01:47;4.13;;;2.13;;
25213;SDS011;13160;51.834;4.706;2024-03-02T22:04:18;3.78;;;2.22;;
25213;SDS011;13160;51.834;4.706;2024-03-02T22:06:47;4.25;;;2.38;;
25213;SDS011;13160;51.834;4.706;2024-03-02T22:09:15;6.32;;;2.78;;
25213;SDS011;13160;51.834;4.706;2024-03-02T22:11:44;6.13;;;2.55;;
25213;SDS011;13160;51.834;4.706;2024-03-02T22:14:16;4.25;;;2.17;;
25213;SDS011;13160;51.834;4.706;2024-03-02T22:16:47;4.85;;;2.28;;
25213;SDS011;13160;51.834;4.706;2024-03-02T22:19:17;3.58;;;2.10;;
25213;SDS011;13160;51.834;4.706;2024-03-02T22:21:45;5.05;;;2.10;;
25213;SDS011;13160;51.834;4.706;2024-03-02T22:24:14;3.70;;;2.08;;
25213;SDS011;13160;51.834;4.706;2024-03-02T22:26:42;4.25;;;2.17;;
25213;SDS011;13160;51.834;4.706;2024-03-02T22:29:11;4.43;;;2.15;;
25213;SDS011;13160;51.834;4.706;2024-03-02T22:31:40;4.32;;;2.20;;
25213;SDS011;13160;51.834;4.706;2024-03-02T22:34:10;4.25;;;2.20;;
25213;SDS011;13160;51.834;4.706;2024-03-02T22:36:39;4.35;;;2.10;;
25213;SDS011;13160;51.834;4.706;2024-03-02T22:39:09;4.22;;;2.10;;
25213;SDS011;13160;51.834;4.706;2024-03-02T22:41:37;4.75;;;1.95;;
25213;SDS011;13160;51.834;4.706;2024-03-02T22:44:05;3.92;;;2.00;;
25213;SDS011;13160;51.834;4.706;2024-03-02T22:46:34;4.45;;;1.73;;
25213;SDS011;13160;51.834;4.706;2024-03-02T22:49:02;5.07;;;1.85;;
25213;SDS011;13160;51.834;4.706;2024-03-02T22:51:33;4.65;;;1.65;;
25213;SDS011;13160;51.834;4.706;2024-03-02T22:54:02;3.85;;;1.80;;
25213;SDS011;13160;51.834;4.706;2024-03-02T22:56:30;4.78;;;1.80;;
25213;SDS011;13160;51.834;4.706;2024-03-02T22:58:59;6.03;;;2.17;;
25213;SDS011;13160;51.834;4.706;2024-03-02T23:01:27;3.53;;;1.67;;
25213;SDS011;13160;51.834;4.706;2024-03-02T23:03:57;3.15;;;1.30;;
25213;SDS011;13160;51.834;4.706;2024-03-02T23:06:26;3.60;;;1.67;;
25213;SDS011;13160;51.834;4.706;2024-03-02T23:08:56;3.42;;;1.67;;
25213;SDS011;13160;51.834;4.706;2024-03-02T23:11:24;2.70;;;1.50;;
25213;SDS011;13160;51.834;4.706;2024-03-02T23:13:53;3.85;;;1.80;;
25213;SDS011;13160;51.834;4.706;2024-03-02T23:16:21;4.03;;;1.60;;
25213;SDS011;13160;51.834;4.706;2024-03-02T23:18:50;4.22;;;1.73;;
25213;SDS011;13160;51.834;4.706;2024-03-02T23:21:19;3.75;;;2.00;;
25213;SDS011;13160;51.834;4.706;2024-03-02T23:23:48;4.00;;;1.80;;
25213;SDS011;13160;51.834;4.706;2024-03-02T23:26:21;3.75;;;1.73;;
25213;SDS011;13160;51.834;4.706;2024-03-02T23:28:50;3.95;;;1.65;;
25213;SDS011;13160;51.834;4.706;2024-03-02T23:31:18;3.03;;;1.50;;
25213;SDS011;13160;51.834;4.706;2024-03-02T23:33:47;4.38;;;1.75;;
25213;SDS011;13160;51.834;4.706;2024-03-02T23:36:16;3.90;;;1.80;;
25213;SDS011;13160;51.834;4.706;2024-03-02T23:38:44;4.60;;;1.73;;
25213;SDS011;13160;51.834;4.706;2024-03-02T23:41:13;3.72;;;1.52;;
25213;SDS011;13160;51.834;4.706;2024-03-02T23:43:42;3.67;;;1.70;;
25213;SDS011;13160;51.834;4.706;2024-03-02T23:46:11;3.28;;;1.60;;
25213;SDS011;13160;51.834;4.706;2024-03-02T23:48:40;4.30;;;1.70;;
25213;SDS011;13160;51.834;4.706;2024-03-02T23:51:08;4.75;;;1.65;;
25213;SDS011;13160;51.834;4.706;2024-03-02T23:53:37;3.67;;;1.50;;
25213;SDS011;13160;51.834;4.706;2024-03-02T23:56:09;3.75;;;1.63;;
25213;SDS011;13160;51.834;4.706;2024-03-02T23:58:39;2.78;;;1.42;;
